Time;durP1;ratioP1;P1;durP2;ratioP2;P2;SDS_P1;SDS_P2;PMS_P1;PMS_P2;Temp;Humidity;BMP_temperature;BMP_pressure;BME280_temperature;BME280_humidity;BME280_pressure;Samples;Min_cycle;Max_cycle;Signal;HPM_P1;HPM_P2
2022/03/28 00:01:36;;;;;;;17.57;11.60;;;;;;;13.29;30.19;97065.31;5044162;28;20257;-84
2022/03/28 00:04:04;;;;;;;16.40;12.07;;;;;;;13.15;31.25;97053.84;5054940;28;20323;-84
2022/03/28 00:06:31;;;;;;;16.60;11.73;;;;;;;12.94;33.50;97058.88;5039123;28;20297;-84
2022/03/28 00:08:58;;;;;;;17.03;11.60;;;;;;;12.58;35.05;97040.78;5046133;28;20206;-84
2022/03/28 00:11:26;;;;;;;17.10;12.03;;;;;;;12.28;35.77;97062.34;5044329;28;20279;-84
2022/03/28 00:13:54;;;;;;;17.07;12.10;;;;;;;12.03;36.23;97060.47;5056178;28;20225;-84
2022/03/28 00:16:23;;;;;;;15.83;11.80;;;;;;;11.87;37.18;97052.09;5048658;28;20241;-85
2022/03/28 00:18:50;;;;;;;18.23;11.63;;;;;;;11.64;37.67;97064.31;5040524;28;20204;-85
2022/03/28 00:21:17;;;;;;;17.13;11.93;;;;;;;11.36;38.74;97059.31;5042599;28;20214;-85
2022/03/28 00:23:44;;;;;;;18.33;11.70;;;;;;;11.08;39.84;97063.41;5044002;28;20238;-84
2022/03/28 00:26:11;;;;;;;19.63;11.80;;;;;;;10.74;40.67;97054.63;5037886;28;20265;-85
2022/03/28 00:28:39;;;;;;;14.80;11.20;;;;;;;10.63;41.24;97058.81;5046698;28;20202;-84
2022/03/28 00:31:07;;;;;;;20.47;12.20;;;;;;;10.43;42.28;97063.47;5043189;28;20210;-84
2022/03/28 00:33:35;;;;;;;17.90;11.40;;;;;;;10.06;43.70;97047.94;5047441;28;20221;-84
2022/03/28 00:36:02;;;;;;;16.53;11.57;;;;;;;9.94;43.41;97053.16;5030341;28;20202;-84
2022/03/28 00:38:29;;;;;;;18.43;10.97;;;;;;;10.00;43.67;97052.31;5059234;28;20206;-84
2022/03/28 00:40:57;;;;;;;18.70;11.17;;;;;;;9.99;44.00;97055.22;5042419;28;20210;-84
2022/03/28 00:43:23;;;;;;;17.30;11.67;;;;;;;10.01;44.15;97053.97;5035623;28;20217;-84
2022/03/28 00:45:51;;;;;;;15.93;11.07;;;;;;;9.98;44.45;97058.94;5033570;28;20297;-84
2022/03/28 00:48:18;;;;;;;17.00;11.50;;;;;;;9.98;44.58;97070.56;5046656;28;20199;-84
2022/03/28 00:50:46;;;;;;;18.23;11.60;;;;;;;9.95;44.80;97062.09;5053595;28;20206;-85
2022/03/28 00:53:15;;;;;;;17.47;11.50;;;;;;;9.96;44.68;97066.41;5042064;28;20219;-84
2022/03/28 00:55:42;;;;;;;18.40;11.80;;;;;;;9.90;44.96;97060.00;5036592;28;20199;-85
2022/03/28 00:58:09;;;;;;;19.70;11.53;;;;;;;9.92;45.08;97065.19;5045499;28;20198;-84
2022/03/28 01:00:36;;;;;;;15.77;10.97;;;;;;;9.83;45.19;97064.56;5044619;28;20221;-84
2022/03/28 01:03:04;;;;;;;15.57;11.30;;;;;;;9.78;46.05;97070.56;5039010;28;20278;-85
2022/03/28 01:05:32;;;;;;;16.07;11.10;;;;;;;9.61;46.85;97066.63;5057264;28;20284;-84
2022/03/28 01:08:00;;;;;;;14.83;10.43;;;;;;;9.59;46.40;97066.03;5037828;28;20231;-84
2022/03/28 01:10:30;;;;;;;18.23;11.60;;;;;;;9.61;46.95;97068.53;5041027;28;20225;-85
2022/03/28 01:12:58;;;;;;;20.27;10.43;;;;;;;9.44;47.51;97055.41;5045193;28;20217;-84
2022/03/28 01:15:26;;;;;;;16.00;10.40;;;;;;;9.22;47.73;97062.03;5046143;28;20226;-84
2022/03/28 01:18:11;;;;;;;18.43;11.90;;;;;;;9.08;48.36;97063.88;5041158;28;20190;-85
2022/03/28 01:20:40;;;;;;;16.87;10.80;;;;;;;9.13;48.04;97055.16;5057907;28;20263;-84
2022/03/28 01:23:10;;;;;;;18.37;10.93;;;;;;;9.07;48.29;97064.91;5044441;28;20237;-84
2022/03/28 01:25:37;;;;;;;17.20;10.53;;;;;;;9.10;48.57;97066.38;5033747;28;20205;-85
2022/03/28 01:28:05;;;;;;;17.47;11.27;;;;;;;9.08;48.98;97063.88;5066004;28;20274;-84
2022/03/28 01:30:33;;;;;;;18.57;11.17;;;;;;;9.10;48.83;97075.25;5042420;28;20236;-84
2022/03/28 01:33:01;;;;;;;15.77;10.40;;;;;;;9.15;49.05;97068.44;5046875;28;20226;-84
2022/03/28 01:35:32;;;;;;;18.53;11.00;;;;;;;9.10;48.67;97061.78;5037801;28;20202;-85
2022/03/28 01:38:00;;;;;;;17.83;11.60;;;;;;;9.06;48.89;97059.72;5044687;28;20244;-85
2022/03/28 01:40:29;;;;;;;14.70;10.43;;;;;;;9.05;49.20;97048.09;5040882;28;20215;-84
2022/03/28 01:42:56;;;;;;;16.37;11.10;;;;;;;9.02;49.05;97055.75;5061591;28;20202;-85
2022/03/28 01:45:24;;;;;;;17.50;11.33;;;;;;;8.91;49.59;97057.19;5046110;28;20206;-85
2022/03/28 01:47:52;;;;;;;17.00;10.57;;;;;;;8.86;49.60;97061.50;5045942;28;20278;-84
2022/03/28 01:50:19;;;;;;;17.60;11.37;;;;;;;8.79;49.29;97056.09;5038977;28;20215;-84
2022/03/28 01:52:46;;;;;;;18.13;11.60;;;;;;;8.78;49.27;97046.34;5049035;28;20212;-85
2022/03/28 01:55:14;;;;;;;17.97;11.03;;;;;;;8.75;49.82;97062.94;5032896;28;20249;-84
2022/03/28 01:57:43;;;;;;;16.67;11.07;;;;;;;8.77;49.63;97049.25;5053503;28;20401;-84
2022/03/28 02:00:14;;;;;;;15.97;10.90;;;;;;;8.79;49.33;97050.72;5031756;28;20217;-85
2022/03/28 02:02:42;;;;;;;16.23;10.90;;;;;;;8.86;49.01;97048.88;5058870;28;20232;-84
2022/03/28 02:05:11;;;;;;;15.20;11.00;;;;;;;8.94;47.81;97039.78;5042106;28;20198;-84
2022/03/28 02:07:41;;;;;;;16.23;11.27;;;;;;;8.94;47.83;97040.59;5043583;28;20206;-85
2022/03/28 02:10:10;;;;;;;17.80;11.30;;;;;;;8.98;48.44;97049.13;5039736;28;20199;-85
2022/03/28 02:12:37;;;;;;;15.13;10.60;;;;;;;8.90;48.15;97047.44;5043212;28;20343;-84
2022/03/28 02:15:07;;;;;;;15.07;10.50;;;;;;;8.80;47.77;97044.31;5039541;28;20215;-85
2022/03/28 02:17:35;;;;;;;16.57;10.50;;;;;;;8.77;48.22;97044.69;5056046;28;20264;-85
2022/03/28 02:20:02;;;;;;;17.87;10.43;;;;;;;8.64;48.84;97033.88;5041470;28;20244;-85
2022/03/28 02:22:29;;;;;;;16.27;10.53;;;;;;;8.61;49.58;97042.34;5046965;28;20337;-84
2022/03/28 02:24:56;;;;;;;15.67;10.93;;;;;;;8.58;50.03;97043.63;5035050;28;20226;-84
2022/03/28 02:27:23;;;;;;;15.87;10.73;;;;;;;8.58;49.73;97045.47;5044671;28;20219;-84
2022/03/28 02:29:50;;;;;;;16.20;10.47;;;;;;;8.57;50.06;97041.13;5058935;28;20199;-84
2022/03/28 02:32:18;;;;;;;17.43;10.80;;;;;;;8.57;50.19;97043.81;5035662;28;20273;-84
2022/03/28 02:34:45;;;;;;;14.20;9.83;;;;;;;8.50;50.11;97037.56;5039340;28;20244;-84
2022/03/28 02:37:13;;;;;;;15.90;10.70;;;;;;;8.42;50.25;97035.06;5057261;28;20274;-85
2022/03/28 02:39:40;;;;;;;15.30;10.73;;;;;;;8.40;50.00;97039.78;5044646;28;20261;-85
2022/03/28 02:42:08;;;;;;;17.67;10.10;;;;;;;8.36;50.63;97036.66;5032378;28;20214;-85
2022/03/28 02:44:35;;;;;;;14.33;9.57;;;;;;;8.45;50.95;97040.00;5042671;28;20265;-84
2022/03/28 02:47:04;;;;;;;17.07;10.97;;;;;;;8.31;51.47;97041.81;5037978;28;20203;-84
2022/03/28 02:49:32;;;;;;;15.47;10.80;;;;;;;8.22;52.09;97040.28;5048254;28;20209;-84
2022/03/28 02:51:59;;;;;;;16.00;9.73;;;;;;;8.23;51.61;97036.56;5055466;28;20206;-84
2022/03/28 02:54:26;;;;;;;18.13;10.43;;;;;;;8.17;50.96;97035.47;5044187;28;20338;-84
2022/03/28 02:56:53;;;;;;;14.63;9.90;;;;;;;8.17;51.07;97029.28;5064582;28;20206;-84
2022/03/28 02:59:20;;;;;;;16.73;11.03;;;;;;;8.17;51.77;97030.09;5045238;28;20746;-84
2022/03/28 03:01:48;;;;;;;15.87;10.77;;;;;;;8.20;51.39;97037.78;5041762;28;20294;-84
2022/03/28 03:04:15;;;;;;;16.53;10.50;;;;;;;8.17;51.74;97032.78;5036717;28;20199;-84
2022/03/28 03:06:44;;;;;;;16.63;10.33;;;;;;;7.98;51.90;97020.91;5038044;28;20207;-84
2022/03/28 03:09:11;;;;;;;15.77;9.83;;;;;;;7.91;51.82;97024.59;5040063;28;20198;-85
2022/03/28 03:11:40;;;;;;;13.93;9.93;;;;;;;7.99;50.28;97029.81;5044718;28;20210;-85
2022/03/28 03:14:07;;;;;;;17.33;10.77;;;;;;;7.98;50.89;97022.78;5046679;28;20234;-84
2022/03/28 03:16:34;;;;;;;15.53;10.00;;;;;;;7.93;51.26;97025.19;5045740;28;20225;-84
2022/03/28 03:19:01;;;;;;;18.37;10.77;;;;;;;7.81;52.08;97021.41;5039990;28;20202;-84
2022/03/28 03:21:28;;;;;;;15.63;10.00;;;;;;;7.86;51.81;97027.03;5045732;28;20202;-84
2022/03/28 03:23:57;;;;;;;14.47;9.83;;;;;;;7.92;52.15;97028.91;5049021;28;20234;-84
2022/03/28 03:26:24;;;;;;;17.43;10.87;;;;;;;7.93;52.48;97030.59;5053765;28;20268;-85
2022/03/28 03:28:54;;;;;;;17.57;10.57;;;;;;;7.87;53.00;97032.22;5044654;28;20206;-85
2022/03/28 03:31:21;;;;;;;15.20;9.97;;;;;;;7.68;52.94;97021.31;5040595;28;20206;-84
2022/03/28 03:33:48;;;;;;;18.00;10.33;;;;;;;7.60;53.79;97025.81;5048094;28;20222;-85
2022/03/28 03:36:15;;;;;;;17.33;10.33;;;;;;;7.51;53.70;97021.59;5039967;28;20207;-84
2022/03/28 03:38:42;;;;;;;13.47;9.83;;;;;;;7.49;54.32;97020.97;5035697;28;20207;-84
2022/03/28 03:41:10;;;;;;;15.67;10.43;;;;;;;7.51;54.66;97026.97;5041351;28;20221;-84
2022/03/28 03:43:37;;;;;;;13.83;9.83;;;;;;;7.40;55.07;97032.88;5039647;28;20221;-85
2022/03/28 03:46:04;;;;;;;16.37;10.30;;;;;;;7.50;53.78;97035.22;5039300;28;20225;-84
2022/03/28 03:48:31;;;;;;;14.53;9.47;;;;;;;7.60;52.89;97033.88;5048713;28;20202;-84
2022/03/28 03:50:58;;;;;;;15.47;9.53;;;;;;;7.56;52.69;97035.31;5037409;28;20199;-85
2022/03/28 03:53:25;;;;;;;15.83;9.63;;;;;;;7.57;52.84;97031.56;5033309;28;20206;-84
2022/03/28 03:55:53;;;;;;;19.97;10.13;;;;;;;7.52;53.64;97034.00;5043796;28;20210;-85
2022/03/28 03:58:22;;;;;;;16.23;10.13;;;;;;;7.54;53.42;97031.13;5045049;28;20216;-85
2022/03/28 04:00:49;;;;;;;15.07;10.50;;;;;;;7.54;53.60;97031.97;5037511;28;20227;-84
2022/03/28 04:03:16;;;;;;;13.40;9.57;;;;;;;7.57;52.87;97026.19;5043210;28;20229;-84
2022/03/28 04:05:43;;;;;;;14.80;10.07;;;;;;;7.64;52.70;97028.13;5057271;28;20213;-84
2022/03/28 04:08:10;;;;;;;14.20;9.93;;;;;;;7.64;53.35;97030.81;5062243;28;20285;-84
2022/03/28 04:10:37;;;;;;;17.43;10.30;;;;;;;7.62;53.47;97030.16;5044077;28;20222;-85
2022/03/28 04:13:06;;;;;;;16.57;8.93;;;;;;;7.60;52.87;97025.81;5036668;28;20245;-85
2022/03/28 04:15:34;;;;;;;14.90;9.43;;;;;;;7.58;52.23;97022.47;5037351;28;20234;-84
2022/03/28 04:18:05;;;;;;;14.33;9.03;;;;;;;7.59;52.47;97017.94;5036610;28;20209;-84
2022/03/28 04:20:33;;;;;;;15.07;9.87;;;;;;;7.65;52.34;97019.03;5046794;28;20209;-84
2022/03/28 04:23:00;;;;;;;16.87;10.33;;;;;;;7.55;52.77;97017.50;5064509;28;20603;-85
2022/03/28 04:25:27;;;;;;;14.17;10.00;;;;;;;7.52;53.50;97028.63;5038569;28;20222;-83
2022/03/28 04:27:54;;;;;;;20.60;10.60;;;;;;;7.46;54.03;97028.59;5046351;28;20248;-84
2022/03/28 04:30:22;;;;;;;15.83;9.67;;;;;;;7.44;52.83;97015.34;5046979;28;20263;-84
2022/03/28 04:32:51;;;;;;;15.07;9.60;;;;;;;7.47;51.77;97014.13;5037574;28;20206;-83
2022/03/28 04:35:20;;;;;;;13.07;9.00;;;;;;;7.45;51.61;97016.19;5039044;28;20232;-83
2022/03/28 04:37:47;;;;;;;15.80;9.20;;;;;;;7.43;52.90;97019.06;5047653;28;20202;-84
2022/03/28 04:40:17;;;;;;;17.57;10.17;;;;;;;7.38;53.84;97010.75;5049461;28;20208;-84
2022/03/28 04:42:45;;;;;;;16.67;10.17;;;;;;;7.33;54.08;97013.19;5039472;28;20297;-83
2022/03/28 04:45:12;;;;;;;18.30;10.43;;;;;;;7.27;54.89;97016.66;5046833;28;20202;-83
2022/03/28 04:47:40;;;;;;;15.43;9.93;;;;;;;7.27;54.90;97022.00;5051491;28;20217;-83
2022/03/28 04:50:09;;;;;;;15.87;9.90;;;;;;;7.25;55.52;97018.69;5038873;28;20245;-84
2022/03/28 04:52:37;;;;;;;16.00;9.13;;;;;;;7.18;55.81;97015.94;5050242;28;20218;-83
2022/03/28 04:55:05;;;;;;;18.80;11.30;;;;;;;7.19;56.30;97016.78;5044749;28;20264;-84
2022/03/28 04:57:32;;;;;;;16.40;10.33;;;;;;;7.06;56.73;97009.41;5039299;28;20201;-83
2022/03/28 05:00:00;;;;;;;20.07;10.97;;;;;;;6.91;57.59;97018.56;5044623;28;20199;-83
2022/03/28 05:02:27;;;;;;;16.67;10.63;;;;;;;6.86;57.67;97021.00;5039225;28;20194;-84
2022/03/28 05:04:55;;;;;;;18.77;10.60;;;;;;;6.89;57.66;97016.06;5045985;28;20214;-83
2022/03/28 05:07:27;;;;;;;18.73;10.67;;;;;;;6.95;57.68;97019.84;5042930;28;20209;-84
2022/03/28 05:09:54;;;;;;;16.87;10.60;;;;;;;6.92;57.53;97021.06;5059802;28;20234;-83
2022/03/28 05:12:21;;;;;;;15.27;10.40;;;;;;;6.90;57.84;97025.78;5062808;28;20205;-84
2022/03/28 05:14:48;;;;;;;28.23;16.23;;;;;;;6.84;58.10;97023.88;5038385;28;20261;-84
2022/03/28 05:17:16;;;;;;;15.63;10.17;;;;;;;6.82;58.98;97039.31;5036007;28;20300;-84
2022/03/28 05:19:43;;;;;;;17.27;10.60;;;;;;;6.63;59.14;97016.63;5035750;28;20206;-84
2022/03/28 05:22:10;;;;;;;18.30;10.77;;;;;;;6.69;58.38;97036.50;5064805;28;20230;-84
2022/03/28 05:24:39;;;;;;;15.27;10.60;;;;;;;6.69;58.89;97026.59;5040349;28;20238;-84
2022/03/28 05:27:06;;;;;;;17.80;10.47;;;;;;;6.74;59.58;97040.28;5038802;28;20194;-84
2022/03/28 05:29:33;;;;;;;16.40;9.87;;;;;;;6.62;59.19;97027.56;5031378;28;20209;-83
2022/03/28 05:32:01;;;;;;;27.70;12.80;;;;;;;6.70;59.35;97033.63;5045550;28;20295;-84
2022/03/28 05:34:30;;;;;;;16.87;11.57;;;;;;;6.73;59.44;97027.03;5044917;28;20229;-83
2022/03/28 05:36:58;;;;;;;15.30;10.17;;;;;;;6.77;58.82;97033.69;5045811;28;20225;-83
2022/03/28 05:39:26;;;;;;;15.87;10.20;;;;;;;6.88;58.88;97035.91;5038952;28;20219;-83
2022/03/28 05:41:56;;;;;;;15.27;9.10;;;;;;;6.91;57.44;97037.34;5044869;28;20195;-84
2022/03/28 05:44:23;;;;;;;11.27;8.80;;;;;;;6.96;57.39;97030.41;5032027;28;20221;-83
2022/03/28 05:46:50;;;;;;;16.87;9.37;;;;;;;6.98;57.07;97032.88;5052677;28;20207;-84
2022/03/28 05:49:18;;;;;;;15.13;8.97;;;;;;;6.97;56.56;97026.69;5041014;28;20203;-84
2022/03/28 05:51:45;;;;;;;17.90;9.90;;;;;;;7.01;57.66;97035.19;5039964;28;20206;-85
2022/03/28 05:54:13;;;;;;;18.77;11.23;;;;;;;7.02;58.14;97039.53;5035819;28;20199;-85
2022/03/28 05:56:40;;;;;;;18.53;11.07;;;;;;;6.72;59.51;97038.81;5057969;28;20261;-84
2022/03/28 05:59:09;;;;;;;19.73;11.27;;;;;;;6.65;59.80;97037.88;5041010;28;20214;-85
2022/03/28 06:01:36;;;;;;;24.10;12.37;;;;;;;6.56;60.50;97047.06;5035977;28;20217;-84
2022/03/28 06:04:04;;;;;;;18.80;11.30;;;;;;;6.54;61.18;97043.75;5050410;28;20206;-84
2022/03/28 06:06:31;;;;;;;20.13;11.10;;;;;;;6.45;61.39;97035.81;5031765;28;20298;-84
2022/03/28 06:08:59;;;;;;;19.17;10.73;;;;;;;6.38;61.79;97028.72;5041553;28;20206;-84
2022/03/28 06:11:26;;;;;;;18.77;10.23;;;;;;;6.44;61.76;97033.31;5039799;28;20284;-84
2022/03/28 06:13:53;;;;;;;17.13;10.03;;;;;;;6.51;61.76;97034.22;5039359;28;20209;-84
2022/03/28 06:16:22;;;;;;;15.53;10.07;;;;;;;6.56;61.05;97041.69;5040515;28;20238;-84
2022/03/28 06:18:49;;;;;;;14.43;9.93;;;;;;;6.59;61.10;97031.44;5043927;28;20281;-84
2022/03/28 06:21:16;;;;;;;18.03;9.87;;;;;;;6.68;60.05;97030.31;5041325;28;20214;-84
2022/03/28 06:23:43;;;;;;;13.57;9.50;;;;;;;6.75;59.75;97041.94;5041765;28;20283;-82
2022/03/28 06:26:11;;;;;;;14.37;8.90;;;;;;;6.83;59.48;97017.66;5061028;28;20249;-83
2022/03/28 06:28:40;;;;;;;13.93;8.77;;;;;;;6.88;59.56;97025.16;5050108;28;20210;-84
2022/03/28 06:31:07;;;;;;;18.07;9.90;;;;;;;6.91;59.94;97029.28;5042679;28;20206;-83
2022/03/28 06:33:36;;;;;;;15.47;9.30;;;;;;;6.92;60.02;97033.66;5041189;28;20245;-84
2022/03/28 06:36:04;;;;;;;18.37;10.20;;;;;;;6.93;60.35;97029.94;5042629;28;20229;-83
2022/03/28 06:38:31;;;;;;;18.93;11.73;;;;;;;6.89;60.79;97026.00;5053311;28;20203;-84
2022/03/28 06:40:58;;;;;;;20.70;10.93;;;;;;;6.82;61.04;97036.63;5039117;28;20213;-84
2022/03/28 06:43:25;;;;;;;13.10;9.97;;;;;;;6.80;60.58;97036.81;5055045;28;20206;-84
2022/03/28 06:45:52;;;;;;;20.03;10.10;;;;;;;6.84;60.94;97038.13;5038031;28;20207;-83
2022/03/28 06:48:19;;;;;;;18.70;10.80;;;;;;;6.80;61.55;97034.13;5051250;28;20202;-84
2022/03/28 06:50:48;;;;;;;16.63;10.07;;;;;;;6.78;61.38;97032.69;5037761;28;20210;-84
2022/03/28 06:53:15;;;;;;;16.70;9.53;;;;;;;6.86;61.49;97039.78;5034936;28;20275;-84
2022/03/28 06:55:43;;;;;;;18.37;9.83;;;;;;;6.86;60.40;97037.09;5031271;28;20229;-84
2022/03/28 06:58:11;;;;;;;20.00;10.10;;;;;;;6.95;60.83;97027.91;5041593;28;20208;-84
2022/03/28 07:00:38;;;;;;;14.10;8.67;;;;;;;7.02;60.78;97036.84;5042858;28;20305;-84
2022/03/28 07:03:07;;;;;;;11.17;7.57;;;;;;;7.06;59.48;97035.47;5061061;28;20202;-84
2022/03/28 07:05:35;;;;;;;16.00;9.80;;;;;;;7.13;60.29;97033.66;5036556;28;20221;-84
2022/03/28 07:08:03;;;;;;;20.97;12.30;;;;;;;7.12;60.27;97032.00;5046953;28;20204;-84
2022/03/28 07:10:31;;;;;;;20.43;11.67;;;;;;;7.18;61.25;97028.53;5063411;28;20222;-84
2022/03/28 07:12:58;;;;;;;18.77;11.70;;;;;;;7.19;60.84;97038.25;5054200;28;20217;-84
2022/03/28 07:15:26;;;;;;;18.83;12.37;;;;;;;7.20;60.42;97030.03;5046111;28;20240;-84
2022/03/28 07:17:58;;;;;;;19.53;12.00;;;;;;;7.19;61.04;97033.72;5046135;28;20256;-84
2022/03/28 07:20:27;;;;;;;18.53;11.63;;;;;;;7.06;61.38;97027.41;5043938;28;20224;-84
2022/03/28 07:22:55;;;;;;;21.90;11.63;;;;;;;7.12;61.77;97034.69;5046385;28;20244;-84
2022/03/28 07:25:24;;;;;;;17.23;10.73;;;;;;;7.18;61.34;97021.31;5043383;28;20206;-84
2022/03/28 07:27:52;;;;;;;19.47;11.77;;;;;;;7.25;60.83;97032.13;5043334;28;20297;-84
2022/03/28 07:30:21;;;;;;;25.37;10.93;;;;;;;7.25;61.20;97029.44;5045679;28;20210;-84
2022/03/28 07:32:48;;;;;;;21.37;11.77;;;;;;;7.29;61.59;97028.03;5044873;28;20210;-83
2022/03/28 07:35:17;;;;;;;20.63;12.30;;;;;;;7.23;60.97;97018.03;5030869;28;20281;-84
2022/03/28 07:37:45;;;;;;;27.70;12.47;;;;;;;7.25;61.73;97026.75;5043488;28;20198;-85
2022/03/28 07:40:13;;;;;;;22.37;11.93;;;;;;;7.20;62.13;97011.22;5045389;28;20210;-84
2022/03/28 07:42:42;;;;;;;24.63;13.37;;;;;;;7.29;61.58;97006.53;5046563;28;20329;-84
2022/03/28 07:45:10;;;;;;;21.27;10.77;;;;;;;7.29;61.71;97005.72;5049818;28;20206;-84
2022/03/28 07:47:38;;;;;;;24.43;11.40;;;;;;;7.32;62.75;97005.31;5048525;28;20194;-84
2022/03/28 07:50:06;;;;;;;17.53;10.73;;;;;;;7.41;62.34;97010.34;5034379;28;20191;-83
2022/03/28 07:52:34;;;;;;;17.47;10.53;;;;;;;7.48;63.17;97000.50;5034748;28;20203;-84
2022/03/28 07:55:01;;;;;;;19.87;10.50;;;;;;;7.59;63.47;97008.03;5014705;28;20243;-84
2022/03/28 07:57:29;;;;;;;31.10;12.40;;;;;;;7.62;62.28;97000.59;4999618;28;20226;-83
2022/03/28 07:59:58;;;;;;;17.43;9.97;;;;;;;7.65;63.31;97000.22;5006471;28;20234;-83
2022/03/28 08:02:25;;;;;;;15.13;8.97;;;;;;;7.65;63.34;97005.59;5006042;28;20208;-83
2022/03/28 08:04:52;;;;;;;18.53;9.27;;;;;;;7.70;60.74;97001.28;5000742;28;20222;-83
2022/03/28 08:07:19;;;;;;;18.50;8.53;;;;;;;7.70;62.32;96993.22;5008269;28;20208;-83
2022/03/28 08:09:46;;;;;;;14.03;7.67;;;;;;;7.85;60.55;96998.47;5016223;28;20226;-84
2022/03/28 08:12:15;;;;;;;16.00;8.60;;;;;;;7.94;59.93;96989.22;5009717;28;20195;-84
2022/03/28 08:14:42;;;;;;;15.43;9.10;;;;;;;8.09;58.91;96987.22;5006073;28;20211;-83
2022/03/28 08:17:11;;;;;;;12.60;7.87;;;;;;;8.38;58.49;96982.66;5007920;28;20311;-83
2022/03/28 08:19:38;;;;;;;11.07;7.80;;;;;;;8.73;55.87;96974.28;5022970;28;20216;-83
2022/03/28 08:22:05;;;;;;;9.33;6.73;;;;;;;9.06;53.10;96978.91;4999154;28;20299;-84
2022/03/28 08:24:32;;;;;;;12.43;7.13;;;;;;;9.42;54.46;96979.34;5007764;28;20210;-83
2022/03/28 08:26:59;;;;;;;10.97;6.70;;;;;;;9.72;51.45;96977.03;5002567;28;20311;-84
2022/03/28 08:29:26;;;;;;;9.63;7.03;;;;;;;10.00;51.90;96965.16;5002873;28;20254;-84
2022/03/28 08:31:53;;;;;;;10.47;7.03;;;;;;;10.33;48.41;96976.69;5012301;28;20208;-84
2022/03/28 08:34:22;;;;;;;11.73;7.07;;;;;;;10.66;47.48;96983.81;4996555;28;20208;-83
2022/03/28 08:36:49;;;;;;;9.23;7.07;;;;;;;10.96;45.58;96974.13;5005490;28;20221;-83
2022/03/28 08:39:16;;;;;;;11.60;8.10;;;;;;;11.33;43.93;96962.41;5016432;28;20201;-83
2022/03/28 08:41:47;;;;;;;14.27;8.27;;;;;;;11.63;43.71;96950.94;5018758;28;20199;-83
2022/03/28 08:44:14;;;;;;;12.67;8.30;;;;;;;12.04;40.75;96958.47;5020201;28;20231;-83
2022/03/28 08:46:45;;;;;;;16.60;8.13;;;;;;;12.43;41.57;96952.56;5005543;28;20393;-83
2022/03/28 08:49:12;;;;;;;12.80;8.70;;;;;;;12.89;39.52;96951.16;5020008;28;20212;-83
2022/03/28 08:51:41;;;;;;;20.57;9.23;;;;;;;13.29;37.94;96951.41;4999341;28;20208;-83
2022/03/28 08:54:08;;;;;;;15.50;9.00;;;;;;;13.59;36.27;96946.75;4998674;28;20291;-83
2022/03/28 08:56:35;;;;;;;15.93;9.07;;;;;;;13.84;35.82;96942.97;5019028;28;20223;-83
2022/03/28 08:59:04;;;;;;;14.07;8.93;;;;;;;14.06;35.33;96930.44;5019698;28;20218;-85
2022/03/28 09:01:32;;;;;;;11.83;7.87;;;;;;;14.12;34.81;96923.25;4996834;28;20215;-84
2022/03/28 09:04:07;;;;;;;8.70;6.90;;;;;;;14.36;34.10;96928.41;5005610;28;20211;-84
2022/03/28 09:06:37;;;;;;;13.77;7.87;;;;;;;14.49;34.65;96913.72;5019811;28;20295;-84
2022/03/28 09:09:18;;;;;;;12.20;7.67;;;;;;;14.72;34.12;96924.50;5006145;28;20212;-85
2022/03/28 09:11:47;;;;;;;11.70;8.20;;;;;;;14.88;33.90;96924.84;5004432;28;20246;-85
2022/03/28 09:14:24;;;;;;;15.17;8.37;;;;;;;15.06;33.97;96916.44;5004208;28;20291;-84
2022/03/28 09:16:59;;;;;;;11.73;7.60;;;;;;;15.14;33.56;96903.25;5015725;28;20224;-85
2022/03/28 09:19:28;;;;;;;13.77;8.43;;;;;;;15.30;31.07;96909.81;5014205;28;20283;-85
2022/03/28 09:21:55;;;;;;;15.17;8.43;;;;;;;15.41;30.54;96900.72;5011912;28;20286;-85
2022/03/28 09:24:31;;;;;;;13.10;8.70;;;;;;;15.39;29.92;96897.47;5014882;28;20223;-85
2022/03/28 09:27:11;;;;;;;16.07;9.33;;;;;;;15.60;30.28;96887.72;5014624;28;20303;-84
2022/03/28 09:29:56;;;;;;;15.70;8.63;;;;;;;15.80;30.23;96884.50;5003857;28;20299;-84
2022/03/28 09:32:24;;;;;;;13.67;9.00;;;;;;;16.01;30.10;96871.97;5011821;28;20235;-85
2022/03/28 09:35:06;;;;;;;12.73;8.63;;;;;;;16.22;28.67;96869.28;5000269;28;20197;-85
2022/03/28 09:37:48;;;;;;;13.00;9.37;;;;;;;16.42;29.40;96857.78;5017654;28;20213;-85
2022/03/28 09:40:36;;;;;;;16.77;9.97;;;;;;;16.69;28.61;96859.75;5021677;28;20235;-89
2022/03/28 09:43:06;;;;;;;12.77;9.20;;;;;;;16.76;28.68;96847.56;5002324;28;20212;-89
2022/03/28 09:45:37;;;;;;;16.83;9.00;;;;;;;16.96;28.28;96844.22;5015006;28;20212;-88
2022/03/28 09:48:07;;;;;;;15.17;9.00;;;;;;;17.10;27.38;96850.09;5009564;28;20208;-89
2022/03/28 09:50:38;;;;;;;12.60;8.17;;;;;;;17.22;26.64;96845.25;4995408;28;20219;-90
2022/03/28 09:53:16;;;;;;;11.47;7.80;;;;;;;17.30;26.57;96844.78;4992670;28;20208;-89
2022/03/28 09:55:56;;;;;;;13.40;8.87;;;;;;;17.36;26.09;96839.09;4999943;28;20224;-88
2022/03/28 09:58:35;;;;;;;13.83;8.37;;;;;;;17.50;26.55;96841.41;5005478;28;20230;-88
2022/03/28 10:01:05;;;;;;;14.23;8.77;;;;;;;17.55;26.52;96828.59;4999479;28;20294;-88
2022/03/28 10:03:36;;;;;;;11.33;8.70;;;;;;;17.58;25.97;96827.25;5006352;28;20214;-89
2022/03/28 10:06:05;;;;;;;17.00;9.40;;;;;;;17.70;26.75;96831.44;4995737;28;20261;-89
2022/03/28 10:08:32;;;;;;;17.00;9.37;;;;;;;17.83;27.92;96823.88;5018900;28;20203;-88
2022/03/28 10:11:02;;;;;;;14.73;9.27;;;;;;;17.92;29.06;96827.75;4997113;28;20220;-89
2022/03/28 10:13:30;;;;;;;14.30;9.27;;;;;;;18.01;28.89;96826.19;4997949;28;20314;-88
2022/03/28 10:15:58;;;;;;;14.20;9.60;;;;;;;18.20;28.99;96821.06;5009785;28;20232;-88
2022/03/28 10:18:29;;;;;;;13.43;9.93;;;;;;;18.15;29.13;96816.38;5006665;28;20222;-88
2022/03/28 10:20:57;;;;;;;17.67;9.37;;;;;;;18.13;29.77;96808.44;5004832;28;20253;-88
2022/03/28 10:23:29;;;;;;;11.27;8.97;;;;;;;18.29;28.77;96806.59;5006591;28;20246;-88
2022/03/28 10:25:59;;;;;;;16.07;9.33;;;;;;;18.32;29.10;96797.03;4993913;28;20219;-88
2022/03/28 10:28:27;;;;;;;14.70;9.67;;;;;;;18.44;29.12;96803.13;5008776;28;20208;-87
2022/03/28 10:31:16;;;;;;;12.03;8.93;;;;;;;18.57;28.29;96786.22;4999269;28;20207;-87
2022/03/28 10:33:51;;;;;;;19.93;10.03;;;;;;;18.72;28.51;96783.50;4997700;28;20306;-87
2022/03/28 10:36:28;;;;;;;13.20;9.57;;;;;;;18.78;27.14;96773.41;4995232;28;20267;-86
2022/03/28 10:39:29;;;;;;;12.80;9.23;;;;;;;18.82;25.91;96771.75;5002151;28;20215;-86
2022/03/28 10:42:05;;;;;;;13.73;8.50;;;;;;;18.99;25.60;96760.53;5000742;28;20235;-87
2022/03/28 10:44:45;;;;;;;11.67;8.67;;;;;;;19.13;25.42;96750.69;5015301;28;20222;-85
2022/03/28 10:47:14;;;;;;;13.80;8.60;;;;;;;19.30;24.99;96756.72;5022016;28;20238;-88
2022/03/28 10:49:44;;;;;;;10.90;8.50;;;;;;;19.36;25.00;96747.38;5010767;28;20229;-88
2022/03/28 10:52:17;;;;;;;13.53;9.37;;;;;;;19.35;24.34;96742.16;5004303;28;20219;-88
2022/03/28 10:54:44;;;;;;;13.40;8.47;;;;;;;19.51;24.95;96743.81;5020980;28;20234;-87
2022/03/28 10:57:26;;;;;;;11.73;8.33;;;;;;;19.64;24.76;96744.06;5002678;28;20224;-83
2022/03/28 11:00:12;;;;;;;12.20;8.03;;;;;;;19.68;24.16;96735.28;4996631;28;20341;-79
2022/03/28 11:02:39;;;;;;;12.27;8.50;;;;;;;19.59;23.73;96733.13;5009620;28;20215;-81
2022/03/28 11:05:09;;;;;;;12.47;8.67;;;;;;;19.53;24.17;96717.78;5019990;28;20204;-80
2022/03/28 11:07:36;;;;;;;9.30;7.65;;;;;;;19.68;23.92;96718.84;5012156;28;20215;-80
2022/03/28 11:10:06;;;;;;;11.43;8.57;;;;;;;19.94;23.23;96717.66;5007677;28;20235;-81
2022/03/28 11:12:37;;;;;;;11.50;8.40;;;;;;;20.15;23.21;96702.75;5012216;28;20597;-80
2022/03/28 11:15:13;;;;;;;10.63;7.85;;;;;;;20.21;21.42;96715.31;4989673;28;20247;-80
2022/03/28 11:17:56;;;;;;;11.38;8.30;;;;;;;20.21;21.45;96698.06;5010759;28;20243;-80
2022/03/28 11:20:25;;;;;;;10.40;7.90;;;;;;;20.24;21.54;96692.84;5011663;28;20222;-82
2022/03/28 11:22:55;;;;;;;11.23;7.97;;;;;;;20.22;22.65;96683.25;5001894;28;20469;-80
2022/03/28 11:25:31;;;;;;;14.02;8.20;;;;;;;20.36;23.78;96687.84;5007459;28;20481;-81
2022/03/28 11:28:07;;;;;;;10.27;7.95;;;;;;;20.52;24.00;96688.53;5001932;28;20278;-80
2022/03/28 11:30:39;;;;;;;11.23;8.10;;;;;;;20.46;23.37;96675.16;4997236;28;20203;-79
2022/03/28 11:33:12;;;;;;;12.25;7.78;;;;;;;20.42;23.12;96676.81;5012584;28;20218;-80
2022/03/28 11:35:41;;;;;;;12.45;7.97;;;;;;;20.48;23.37;96665.56;5020017;28;20208;-79